Time;durP1;ratioP1;P1;durP2;ratioP2;P2;SDS_P1;SDS_P2;PMS_P1;PMS_P2;Temp;Humidity;BMP_temperature;BMP_pressure;BME280_temperature;BME280_humidity;BME280_pressure;Samples;Min_cycle;Max_cycle;Signal;HPM_P1;HPM_P2
2021/06/17 00:02:04;;;;;;;18.40;16.05;;;22.00;72.90;;;;;;5105440;28;20533;-66
2021/06/17 00:04:30;;;;;;;18.30;15.93;;;22.00;73.30;;;;;;5110001;27;20522;-66
2021/06/17 00:06:56;;;;;;;21.67;16.85;;;21.90;73.30;;;;;;5109388;28;20140;-66
2021/06/17 00:09:23;;;;;;;21.52;16.67;;;21.90;73.70;;;;;;5104880;28;20088;-66
2021/06/17 00:11:49;;;;;;;22.55;17.40;;;21.90;73.70;;;;;;5109716;28;20117;-66
2021/06/17 00:14:15;;;;;;;19.83;16.98;;;21.90;74.00;;;;;;5109553;28;20087;-66
2021/06/17 00:16:41;;;;;;;21.98;16.98;;;21.80;73.90;;;;;;5108215;28;20091;-66
2021/06/17 00:19:07;;;;;;;21.42;16.92;;;21.50;75.30;;;;;;5104409;28;20088;-66
2021/06/17 00:21:33;;;;;;;19.38;16.33;;;21.80;74.70;;;;;;5106123;28;20122;-66
2021/06/17 00:23:59;;;;;;;22.23;18.65;;;21.80;74.30;;;;;;5109157;28;20100;-66
2021/06/17 00:26:26;;;;;;;23.15;17.10;;;20.30;74.10;;;;;;5104005;28;20673;-67
2021/06/17 00:28:52;;;;;;;23.13;18.35;;;21.70;74.40;;;;;;5098111;28;20092;-66
2021/06/17 00:31:18;;;;;;;23.00;17.27;;;21.70;75.80;;;;;;5105064;28;20080;-67
2021/06/17 00:33:44;;;;;;;21.55;17.17;;;21.70;75.50;;;;;;5109191;28;20237;-66
2021/06/17 00:36:10;;;;;;;23.23;17.85;;;21.70;75.20;;;;;;5108864;28;20499;-66
2021/06/17 00:38:36;;;;;;;20.70;18.50;;;21.70;75.10;;;;;;5104556;28;20085;-65
2021/06/17 00:41:02;;;;;;;19.55;17.02;;;20.80;74.70;;;;;;5102635;28;20516;-66
2021/06/17 00:43:28;;;;;;;21.85;18.30;;;21.60;75.10;;;;;;5104252;28;20092;-66
2021/06/17 00:45:54;;;;;;;25.00;19.15;;;21.60;75.10;;;;;;5107221;28;20513;-66
2021/06/17 00:48:21;;;;;;;22.48;18.75;;;20.60;75.00;;;;;;5104027;28;20197;-65
2021/06/17 00:50:55;;;;;;;25.58;19.27;;;21.50;77.30;;;;;;5107801;28;20096;-66
2021/06/17 00:53:26;;;;;;;21.42;19.08;;;21.50;76.20;;;;;;5104182;28;20092;-67
2021/06/17 00:55:52;;;;;;;24.50;19.98;;;21.50;76.00;;;;;;5103464;27;21665;-67
2021/06/17 00:58:18;;;;;;;23.85;20.20;;;21.40;76.30;;;;;;5090722;28;20167;-66
2021/06/17 01:00:45;;;;;;;24.77;19.05;;;21.40;76.50;;;;;;5109104;28;20099;-65
2021/06/17 01:03:12;;;;;;;21.92;18.75;;;21.80;77.80;;;;;;5101900;28;20127;-65
2021/06/17 01:05:38;;;;;;;24.38;20.25;;;21.40;76.80;;;;;;5106896;28;20107;-66
2021/06/17 01:08:04;;;;;;;23.88;18.95;;;21.30;76.80;;;;;;5108160;28;20545;-65
2021/06/17 01:11:02;;;;;;;23.92;20.27;;;21.30;77.10;;;;;;5104835;28;20605;-66
2021/06/17 01:13:33;;;;;;;23.05;19.42;;;21.30;76.80;;;;;;5106893;28;20100;-66
2021/06/17 01:16:11;;;;;;;25.73;19.45;;;21.30;77.00;;;;;;5095260;28;20519;-66
2021/06/17 01:18:49;;;;;;;25.92;20.40;;;21.30;77.70;;;;;;5106144;28;20107;-67
2021/06/17 01:21:37;;;;;;;22.03;19.23;;;22.20;78.10;;;;;;5110030;28;20091;-66
2021/06/17 01:24:30;;;;;;;24.92;20.70;;;21.20;77.50;;;;;;5103073;28;20388;-65
2021/06/17 01:27:33;;;;;;;25.65;21.02;;;21.20;77.70;;;;;;5106696;28;20100;-66
2021/06/17 01:30:12;;;;;;;24.60;20.20;;;21.10;77.20;;;;;;5091444;28;20145;-66
2021/06/17 01:32:40;;;;;;;;;;;21.10;77.50;;;;;;5103979;28;20099;-66
2021/06/17 01:35:09;;;;;;;26.08;21.83;;;21.10;80.80;;;;;;5108851;28;20121;-67
2021/06/17 01:37:36;;;;;;;;;;;21.00;77.80;;;;;;5104484;28;20279;-66
2021/06/17 01:40:05;;;;;;;23.42;20.75;;;19.30;77.80;;;;;;5107813;28;19976;-66
2021/06/17 01:42:32;;;;;;;24.95;21.35;;;21.10;78.30;;;;;;5107338;28;20576;-67
2021/06/17 01:45:00;;;;;;;27.10;22.75;;;21.00;78.70;;;;;;5107642;28;20096;-67
2021/06/17 01:47:29;;;;;;;26.83;22.23;;;21.00;78.70;;;;;;5107616;28;20088;-67
2021/06/17 01:49:56;;;;;;;;;;;20.90;78.10;;;;;;5106666;28;20092;-66
2021/06/17 01:52:24;;;;;;;26.10;22.40;;;20.90;79.50;;;;;;5102305;28;19975;-67
2021/06/17 01:54:51;;;;;;;27.48;22.92;;;20.90;78.20;;;;;;5099190;28;20567;-66
2021/06/17 01:57:19;;;;;;;25.13;22.42;;;20.90;78.50;;;;;;5095874;28;20123;-66
2021/06/17 01:59:48;;;;;;;25.48;22.90;;;20.90;78.50;;;;;;5107092;28;20465;-68
2021/06/17 02:02:15;;;;;;;25.77;23.13;;;20.80;78.80;;;;;;5100509;28;20181;-66
2021/06/17 02:04:46;;;;;;;25.92;23.30;;;20.90;79.10;;;;;;5103393;28;20376;-67
2021/06/17 02:07:13;;;;;;;28.50;22.48;;;20.80;79.30;;;;;;5094932;28;20091;-66
2021/06/17 02:09:40;;;;;;;26.08;23.27;;;20.80;79.50;;;;;;5105616;28;20153;-67
2021/06/17 02:12:07;;;;;;;27.73;23.95;;;20.80;80.60;;;;;;5106193;28;20090;-68
2021/06/17 02:14:34;;;;;;;26.67;23.50;;;20.80;80.30;;;;;;5105674;28;20094;-68
2021/06/17 02:17:02;;;;;;;29.05;24.13;;;20.70;80.40;;;;;;5108770;28;20140;-67
2021/06/17 02:19:32;;;;;;;26.35;22.65;;;20.70;80.60;;;;;;5111769;28;20084;-66
2021/06/17 02:22:00;;;;;;;28.00;25.00;;;20.70;80.60;;;;;;5101642;28;20135;-66
2021/06/17 02:24:27;;;;;;;27.63;23.95;;;20.70;80.30;;;;;;5111069;28;20564;-66
2021/06/17 02:27:01;;;;;;;28.35;22.65;;;20.70;80.30;;;;;;5112812;27;20098;-67
2021/06/17 02:29:30;;;;;;;26.90;24.08;;;20.60;80.30;;;;;;5098009;28;20166;-66
2021/06/17 02:31:57;;;;;;;27.30;23.25;;;20.70;80.40;;;;;;5106606;28;20098;-66
2021/06/17 02:34:24;;;;;;;25.45;22.40;;;20.60;80.30;;;;;;5108372;28;20143;-67
2021/06/17 02:36:52;;;;;;;30.35;24.48;;;20.60;80.20;;;;;;5111278;28;20613;-66
2021/06/17 02:39:23;;;;;;;25.70;22.95;;;20.60;80.50;;;;;;5110198;28;20095;-66
2021/06/17 02:41:57;;;;;;;25.05;21.92;;;20.60;80.60;;;;;;5101913;28;20128;-66
2021/06/17 02:44:25;;;;;;;25.73;22.92;;;21.00;80.60;;;;;;5110787;28;20127;-66
2021/06/17 02:46:53;;;;;;;26.13;22.73;;;20.60;80.80;;;;;;5108665;28;20583;-66
2021/06/17 02:49:19;;;;;;;26.40;23.38;;;20.50;81.30;;;;;;5110658;28;20103;-65
2021/06/17 02:51:45;;;;;;;26.30;21.35;;;20.50;80.90;;;;;;5109396;28;20140;-66
2021/06/17 02:54:11;;;;;;;29.42;22.42;;;20.50;81.10;;;;;;5107161;28;20099;-66
2021/06/17 02:56:49;;;;;;;27.13;21.70;;;20.50;81.60;;;;;;5111069;28;20092;-66
2021/06/17 02:59:32;;;;;;;24.40;21.63;;;20.50;81.00;;;;;;5110610;28;20080;-66
2021/06/17 03:02:13;;;;;;;22.75;19.95;;;20.40;80.90;;;;;;5110147;28;20162;-65
2021/06/17 03:05:05;;;;;;;23.48;20.70;;;20.40;80.80;;;;;;5110075;28;20120;-66
2021/06/17 03:07:41;;;;;;;26.30;21.00;;;20.40;81.00;;;;;;5106140;28;20601;-66
2021/06/17 03:10:10;;;;;;;22.90;20.45;;;20.40;80.80;;;;;;5102304;28;20090;-66
2021/06/17 03:12:38;;;;;;;23.15;20.80;;;20.30;81.00;;;;;;5111114;28;20100;-68
2021/06/17 03:15:06;;;;;;;23.17;20.45;;;20.30;80.70;;;;;;5111610;28;20092;-66
2021/06/17 03:17:38;;;;;;;23.02;20.65;;;20.30;80.80;;;;;;5104798;28;20608;-66
2021/06/17 03:20:07;;;;;;;23.20;19.30;;;20.30;80.90;;;;;;5109716;28;20502;-67
2021/06/17 03:22:34;;;;;;;22.55;20.10;;;20.20;80.90;;;;;;5109892;28;20675;-67
2021/06/17 03:25:07;;;;;;;23.85;20.23;;;20.30;81.20;;;;;;5107780;28;20150;-66
2021/06/17 03:27:35;;;;;;;22.67;20.38;;;20.20;81.10;;;;;;5107138;28;20103;-66
2021/06/17 03:30:03;;;;;;;26.10;22.35;;;20.20;81.00;;;;;;5109282;28;20091;-66
2021/06/17 03:32:30;;;;;;;23.90;20.33;;;20.20;80.90;;;;;;5107238;28;20129;-65
2021/06/17 03:34:58;;;;;;;23.05;19.88;;;20.20;81.30;;;;;;5110594;28;20167;-67
2021/06/17 03:37:27;;;;;;;21.20;18.88;;;20.10;81.30;;;;;;5109671;28;20107;-66
2021/06/17 03:39:54;;;;;;;21.42;19.15;;;20.10;81.10;;;;;;5109231;28;20096;-68
2021/06/17 03:42:21;;;;;;;23.05;19.83;;;20.10;81.40;;;;;;5109842;28;20137;-67
2021/06/17 03:44:48;;;;;;;23.80;21.17;;;20.10;81.30;;;;;;5108637;28;20406;-66
2021/06/17 03:47:16;;;;;;;22.85;19.83;;;20.10;81.10;;;;;;5108697;28;20713;-66
2021/06/17 03:49:44;;;;;;;21.83;19.58;;;20.10;81.30;;;;;;5109714;28;20084;-66
2021/06/17 03:52:14;;;;;;;20.90;18.75;;;19.70;81.30;;;;;;5098398;28;20112;-67
2021/06/17 03:54:42;;;;;;;22.48;20.05;;;20.10;81.60;;;;;;5109068;28;20533;-65
2021/06/17 03:57:09;;;;;;;21.85;19.55;;;18.90;80.30;;;;;;5108177;28;20084;-62
2021/06/17 03:59:42;;;;;;;23.27;19.45;;;20.10;81.10;;;;;;5106157;28;20499;-66
2021/06/17 04:02:10;;;;;;;21.23;19.13;;;19.30;81.80;;;;;;5107439;28;20092;-66
2021/06/17 04:04:36;;;;;;;21.92;19.52;;;20.10;81.60;;;;;;5103436;28;20124;-65
2021/06/17 04:07:09;;;;;;;23.40;21.00;;;20.10;81.40;;;;;;5109923;28;20099;-66
2021/06/17 04:09:38;;;;;;;24.92;20.90;;;20.10;81.50;;;;;;5109573;28;20088;-67
2021/06/17 04:12:09;;;;;;;21.55;19.30;;;20.10;81.50;;;;;;5107200;28;20176;-66
2021/06/17 04:14:38;;;;;;;22.63;20.23;;;20.10;81.70;;;;;;5109129;28;20098;-65
2021/06/17 04:17:09;;;;;;;24.08;19.95;;;20.20;81.40;;;;;;5109096;28;20512;-66
2021/06/17 04:19:38;;;;;;;23.33;18.17;;;20.20;81.50;;;;;;5100944;28;20095;-65
2021/06/17 04:22:07;;;;;;;22.08;19.52;;;20.20;81.30;;;;;;5109284;28;20084;-66
2021/06/17 04:24:38;;;;;;;21.77;18.80;;;20.20;81.90;;;;;;5109997;28;20108;-66
2021/06/17 04:27:06;;;;;;;26.08;20.65;;;20.20;81.20;;;;;;5104237;28;20494;-66
2021/06/17 04:29:37;;;;;;;22.65;19.73;;;20.40;80.90;;;;;;5102448;28;20084;-66
2021/06/17 04:32:06;;;;;;;21.95;19.65;;;20.20;81.20;;;;;;5104567;28;20094;-66
2021/06/17 04:34:34;;;;;;;22.73;20.07;;;20.30;81.90;;;;;;5106606;28;20102;-67
2021/06/17 04:37:02;;;;;;;22.00;19.63;;;20.80;81.90;;;;;;5107850;28;20537;-65
2021/06/17 04:39:28;;;;;;;23.67;21.08;;;20.30;81.50;;;;;;5108590;28;20088;-66
2021/06/17 04:41:54;;;;;;;21.83;19.58;;;20.40;81.60;;;;;;5104044;28;20087;-66
2021/06/17 04:45:03;;;;;;;22.50;20.10;;;20.40;81.50;;;;;;5109173;28;20099;-65
2021/06/17 04:47:29;;;;;;;25.50;20.92;;;20.50;81.80;;;;;;5099573;28;20183;-66
2021/06/17 04:49:55;;;;;;;21.10;18.83;;;20.50;81.50;;;;;;5108042;28;20088;-65
2021/06/17 04:52:39;;;;;;;25.02;21.92;;;20.60;81.60;;;;;;5099968;28;20460;-65
2021/06/17 04:55:06;;;;;;;23.60;21.05;;;20.60;82.00;;;;;;5104872;28;20122;-65
2021/06/17 04:57:32;;;;;;;21.88;19.58;;;20.60;82.30;;;;;;5105159;28;20111;-66
2021/06/17 04:59:58;;;;;;;23.55;20.48;;;20.70;82.40;;;;;;5108646;28;20115;-67
2021/06/17 05:02:24;;;;;;;22.90;20.50;;;20.70;82.30;;;;;;5104523;28;20106;-65
2021/06/17 05:04:50;;;;;;;24.10;21.38;;;20.70;82.30;;;;;;5108717;28;20198;-66
2021/06/17 05:12:26;;;;;;;25.33;20.80;;;20.90;82.40;;;;;;5096063;28;20089;-66
2021/06/17 05:14:53;;;;;;;25.40;20.75;;;20.90;82.20;;;;;;5109456;28;20593;-65
2021/06/17 05:17:19;;;;;;;26.50;20.83;;;21.00;82.20;;;;;;5108221;28;20769;-65
2021/06/17 05:19:45;;;;;;;23.23;20.35;;;21.20;81.90;;;;;;5108630;28;20125;-65
2021/06/17 05:22:11;;;;;;;23.35;19.63;;;21.10;82.10;;;;;;5099321;28;20103;-65
2021/06/17 05:24:38;;;;;;;25.52;19.10;;;21.20;81.90;;;;;;5109845;28;20560;-65
2021/06/17 05:27:05;;;;;;;21.73;19.17;;;21.30;81.80;;;;;;5106832;28;20135;-65
2021/06/17 05:29:31;;;;;;;22.42;18.77;;;21.40;81.70;;;;;;5109761;28;20091;-66
2021/06/17 05:31:57;;;;;;;26.13;19.58;;;21.60;81.60;;;;;;5106306;28;20090;-66
2021/06/17 05:34:23;;;;;;;26.38;19.55;;;21.50;81.60;;;;;;5108956;28;20174;-65
2021/06/17 05:36:49;;;;;;;22.17;18.52;;;21.10;80.40;;;;;;5105789;28;20141;-67
2021/06/17 05:39:15;;;;;;;23.30;19.63;;;21.80;81.20;;;;;;5107624;28;20092;-65
2021/06/17 05:41:41;;;;;;;20.27;18.17;;;21.90;81.10;;;;;;5107367;28;20092;-66
2021/06/17 05:44:07;;;;;;;20.25;18.25;;;23.40;81.10;;;;;;5100784;28;20122;-65
2021/06/17 05:46:37;;;;;;;23.80;18.70;;;22.00;80.30;;;;;;5080887;28;20084;-66
2021/06/17 05:49:03;;;;;;;21.98;17.40;;;22.10;80.10;;;;;;5106539;28;20116;-66
2021/06/17 05:51:29;;;;;;;20.42;17.30;;;21.00;78.60;;;;;;5101881;28;20088;-65
2021/06/17 05:53:54;;;;;;;19.88;16.85;;;22.00;79.20;;;;;;5096735;28;20449;-66
2021/06/17 05:56:20;;;;;;;18.88;16.77;;;22.30;79.50;;;;;;5111617;28;20091;-65
2021/06/17 05:58:47;;;;;;;18.75;16.75;;;22.30;79.20;;;;;;5109817;28;20464;-65
2021/06/17 06:01:13;;;;;;;18.05;15.38;;;22.40;79.20;;;;;;5111964;28;20557;-66
2021/06/17 06:03:39;;;;;;;19.13;15.30;;;22.50;78.20;;;;;;5105320;28;20103;-65
2021/06/17 06:06:06;;;;;;;29.42;20.40;;;21.90;77.70;;;;;;5102658;28;20952;-65
2021/06/17 06:08:32;;;;;;;19.67;17.55;;;22.60;78.40;;;;;;5108372;28;20090;-65
2021/06/17 06:10:58;;;;;;;20.58;15.48;;;22.70;78.00;;;;;;5109970;28;20088;-66
2021/06/17 06:13:24;;;;;;;18.73;16.13;;;22.80;77.50;;;;;;5112233;28;20118;-66
2021/06/17 06:15:51;;;;;;;20.75;15.85;;;23.70;77.00;;;;;;5106989;28;20119;-66
2021/06/17 06:18:18;;;;;;;17.25;15.35;;;23.00;75.60;;;;;;5110712;28;20162;-66
2021/06/17 06:20:47;;;;;;;17.77;15.73;;;23.00;76.30;;;;;;5112941;28;20113;-65
2021/06/17 06:23:16;;;;;;;16.85;14.88;;;23.00;76.00;;;;;;5101526;28;20165;-65
2021/06/17 06:25:47;;;;;;;;;;;23.10;76.00;;;;;;5112547;28;20084;-66
2021/06/17 06:28:13;;;;;;;17.67;14.55;;;23.20;74.80;;;;;;5110921;28;19983;-66
2021/06/17 06:30:39;;;;;;;17.23;14.65;;;23.30;74.60;;;;;;5103566;28;20188;-65
2021/06/17 06:33:05;;;;;;;16.85;14.93;;;23.40;74.30;;;;;;5107535;28;20094;-64
2021/06/17 06:35:31;;;;;;;20.00;13.73;;;23.40;74.00;;;;;;5102732;28;20092;-65
2021/06/17 06:37:57;;;;;;;14.77;12.80;;;23.60;74.00;;;;;;5111955;27;20545;-66
2021/06/17 06:40:25;;;;;;;20.35;14.10;;;23.70;73.70;;;;;;5101406;28;20096;-64
2021/06/17 06:42:52;;;;;;;20.10;14.45;;;23.70;73.30;;;;;;5092232;28;20573;-64
2021/06/17 06:45:18;;;;;;;17.42;14.02;;;23.80;72.50;;;;;;5101052;28;20100;-66
2021/06/17 06:47:44;;;;;;;19.60;14.48;;;23.90;71.70;;;;;;5105174;28;20089;-64
2021/06/17 06:50:10;;;;;;;20.88;14.80;;;24.00;72.20;;;;;;5096957;28;20507;-64
2021/06/17 06:52:37;;;;;;;16.60;14.02;;;24.10;72.30;;;;;;5109860;27;20111;-64
2021/06/17 06:55:05;;;;;;;18.63;14.52;;;24.20;71.90;;;;;;5111881;28;20170;-64
2021/06/17 06:57:31;;;;;;;15.48;13.88;;;24.20;70.40;;;;;;5100311;28;20111;-66
2021/06/17 06:59:57;;;;;;;17.63;13.45;;;24.30;70.50;;;;;;5111490;28;20563;-64
2021/06/17 07:02:23;;;;;;;19.08;13.60;;;24.40;70.60;;;;;;5100007;28;20543;-65
2021/06/17 07:04:48;;;;;;;14.73;13.15;;;24.50;70.40;;;;;;5105984;28;20116;-65
2021/06/17 07:07:14;;;;;;;15.05;13.00;;;24.60;68.60;;;;;;5107117;28;20165;-64
2021/06/17 07:09:40;;;;;;;15.25;12.38;;;24.70;67.80;;;;;;5100971;27;20174;-65
2021/06/17 07:12:07;;;;;;;15.18;12.77;;;24.70;66.40;;;;;;5106377;28;20096;-65
2021/06/17 07:14:33;;;;;;;14.23;12.57;;;24.80;67.50;;;;;;5111645;28;20092;-64
2021/06/17 07:17:00;;;;;;;14.38;12.27;;;24.90;67.20;;;;;;5105661;28;20175;-64
2021/06/17 07:19:26;;;;;;;13.23;11.55;;;25.00;67.20;;;;;;5108989;28;20176;-64
2021/06/17 07:21:52;;;;;;;15.57;11.85;;;25.10;67.20;;;;;;5111070;28;20411;-65
2021/06/17 07:24:23;;;;;;;14.18;12.00;;;25.40;68.70;;;;;;5107901;28;20106;-66
2021/06/17 07:26:51;;;;;;;13.27;11.75;;;26.00;66.00;;;;;;5108905;28;20088;-66
2021/06/17 07:29:17;;;;;;;16.70;12.20;;;26.80;63.40;;;;;;5105725;27;20091;-66
2021/06/17 07:31:43;;;;;;;17.13;13.82;;;27.50;60.00;;;;;;5110621;28;20092;-66
2021/06/17 07:34:11;;;;;;;16.83;12.40;;;28.10;58.60;;;;;;5110269;28;20145;-65
2021/06/17 07:36:38;;;;;;;13.13;11.80;;;29.20;56.80;;;;;;5109764;28;20182;-65
2021/06/17 07:39:06;;;;;;;18.58;12.90;;;29.30;58.30;;;;;;5109161;28;20099;-66
2021/06/17 07:41:32;;;;;;;11.65;10.45;;;29.90;54.90;;;;;;5107076;28;20563;-66
2021/06/17 07:43:59;;;;;;;15.63;11.35;;;30.40;53.80;;;;;;5102901;28;20139;-66
2021/06/17 07:46:25;;;;;;;13.85;11.13;;;30.80;52.10;;;;;;5104214;28;20092;-66
2021/06/17 07:48:51;;;;;;;13.27;10.93;;;31.10;50.90;;;;;;5104297;28;20601;-65
2021/06/17 07:51:17;;;;;;;17.85;11.07;;;31.40;50.60;;;;;;5106152;28;20163;-65
2021/06/17 07:53:43;;;;;;;14.13;11.57;;;31.60;47.80;;;;;;5099332;28;20146;-66
2021/06/17 07:56:09;;;;;;;16.52;10.57;;;32.00;48.30;;;;;;5103246;28;20521;-65
2021/06/17 07:58:36;;;;;;;12.48;9.90;;;32.30;48.50;;;;;;5105706;28;20606;-64
2021/06/17 08:01:04;;;;;;;12.23;10.27;;;32.50;46.80;;;;;;5104036;28;20104;-64
2021/06/17 08:03:31;;;;;;;11.02;9.93;;;32.60;43.60;;;;;;5108230;28;20104;-65
2021/06/17 08:05:57;;;;;;;13.98;9.68;;;32.60;45.60;;;;;;5106507;28;20120;-66
2021/06/17 08:08:24;;;;;;;14.60;10.15;;;32.80;46.50;;;;;;5097833;28;20099;-64
2021/06/17 08:10:50;;;;;;;16.67;11.00;;;33.10;45.80;;;;;;5109547;28;20141;-64
2021/06/17 08:13:16;;;;;;;13.02;9.07;;;33.30;45.00;;;;;;5109656;28;20153;-65
2021/06/17 08:15:42;;;;;;;13.73;9.63;;;33.40;43.30;;;;;;5110285;28;20529;-65
2021/06/17 08:18:08;;;;;;;10.35;8.55;;;33.30;43.00;;;;;;5109626;28;20099;-65
2021/06/17 08:20:35;;;;;;;12.57;9.65;;;33.40;43.20;;;;;;5108296;28;20080;-64
2021/06/17 08:23:01;;;;;;;10.75;9.05;;;33.50;43.20;;;;;;5109819;28;20100;-65
2021/06/17 08:25:27;;;;;;;10.80;8.65;;;33.60;44.10;;;;;;5091691;28;20161;-64
2021/06/17 08:27:52;;;;;;;11.30;9.20;;;33.70;43.40;;;;;;5103047;28;20100;-65
2021/06/17 08:30:20;;;;;;;12.95;9.32;;;33.80;42.80;;;;;;5102559;28;20088;-65
2021/06/17 08:32:48;;;;;;;10.77;8.95;;;33.80;42.90;;;;;;5108708;28;20092;-64
2021/06/17 08:35:15;;;;;;;9.93;8.75;;;33.70;42.60;;;;;;5108207;28;20080;-64
2021/06/17 08:37:42;;;;;;;14.05;10.70;;;33.80;42.90;;;;;;5110782;28;20090;-65
2021/06/17 08:40:09;;;;;;;9.85;8.52;;;34.00;42.40;;;;;;5098856;28;20087;-64
2021/06/17 08:42:35;;;;;;;11.13;9.45;;;33.90;41.80;;;;;;5108310;28;20085;-64
2021/06/17 08:45:05;;;;;;;9.93;8.30;;;34.00;41.90;;;;;;5107915;28;20444;-64
2021/06/17 08:47:32;;;;;;;9.73;8.13;;;34.10;42.70;;;;;;5107594;28;20080;-65
2021/06/17 08:50:01;;;;;;;11.35;8.88;;;34.30;41.90;;;;;;5109022;28;20171;-64
2021/06/17 08:52:33;;;;;;;11.93;10.00;;;34.20;42.10;;;;;;5109745;28;20433;-63
2021/06/17 08:55:17;;;;;;;11.60;9.18;;;34.40;42.30;;;;;;5098441;28;20803;-64
2021/06/17 08:57:44;;;;;;;9.25;7.88;;;34.70;40.90;;;;;;5104679;28;20163;-64
2021/06/17 09:00:16;;;;;;;11.05;8.60;;;34.80;41.40;;;;;;5094715;28;20089;-64
2021/06/17 09:02:54;;;;;;;9.68;8.63;;;35.10;41.00;;;;;;5090432;28;20127;-64
2021/06/17 09:05:20;;;;;;;11.60;8.23;;;35.40;40.40;;;;;;5107581;28;20116;-65
2021/06/17 09:07:47;;;;;;;10.73;7.60;;;35.40;39.10;;;;;;5109177;28;20183;-64
2021/06/17 09:10:13;;;;;;;8.88;7.97;;;35.50;39.90;;;;;;5105962;28;20084;-64
2021/06/17 09:12:47;;;;;;;9.32;7.70;;;35.40;39.90;;;;;;5110083;28;20149;-64
2021/06/17 09:15:14;;;;;;;10.10;7.63;;;35.40;40.50;;;;;;5107010;28;20091;-63
2021/06/17 09:17:40;;;;;;;8.45;7.43;;;35.50;40.60;;;;;;5107954;28;20084;-64
2021/06/17 09:20:08;;;;;;;9.95;7.55;;;35.70;40.50;;;;;;5107608;28;20183;-64
2021/06/17 09:22:35;;;;;;;;;;;35.90;39.30;;;;;;5110127;28;20102;-65
2021/06/17 09:25:01;;;;;;;8.43;7.53;;;35.90;39.50;;;;;;5107688;28;20025;-64
2021/06/17 09:27:39;;;;;;;9.38;7.90;;;36.00;37.90;;;;;;5106194;28;20144;-64
2021/06/17 09:30:11;;;;;;;10.73;7.18;;;35.70;37.20;;;;;;5098148;28;20091;-64
2021/06/17 09:32:39;;;;;;;7.63;6.57;;;35.70;38.20;;;;;;5108692;28;20158;-64
2021/06/17 09:35:15;;;;;;;7.68;6.55;;;35.70;38.30;;;;;;5107733;28;20089;-65
2021/06/17 09:37:41;;;;;;;9.02;6.50;;;35.80;38.10;;;;;;5106907;28;20083;-65
2021/06/17 09:40:23;;;;;;;6.93;6.10;;;35.60;36.80;;;;;;5104166;28;20092;-64
2021/06/17 09:42:50;;;;;;;8.68;6.53;;;35.80;38.00;;;;;;5107556;28;20083;-64
2021/06/17 09:45:18;;;;;;;11.05;6.68;;;35.70;38.50;;;;;;5103628;28;20087;-64
2021/06/17 09:47:45;;;;;;;9.82;6.43;;;35.70;38.20;;;;;;5099598;28;20095;-64
2021/06/17 09:50:25;;;;;;;7.10;5.57;;;35.80;35.90;;;;;;5107948;28;20100;-64
2021/06/17 09:52:52;;;;;;;7.47;6.40;;;35.70;36.20;;;;;;5101173;28;20867;-65
2021/06/17 09:55:41;;;;;;;8.82;6.50;;;35.70;36.00;;;;;;5103585;28;20455;-64
2021/06/17 09:58:41;;;;;;;9.13;5.85;;;35.70;35.70;;;;;;5107429;28;20709;-65
2021/06/17 10:01:14;;;;;;;7.93;6.05;;;35.60;37.30;;;;;;5105571;28;20132;-64
2021/06/17 10:03:42;;;;;;;8.60;5.97;;;35.70;37.20;;;;;;5097851;28;20096;-64
2021/06/17 10:06:21;;;;;;;7.10;5.80;;;35.90;37.70;;;;;;5108078;28;20524;-64
2021/06/17 10:08:47;;;;;;;7.90;5.45;;;36.00;37.30;;;;;;5108006;28;20174;-65
2021/06/17 10:11:14;;;;;;;7.25;5.45;;;35.90;36.50;;;;;;5105910;28;20171;-63
2021/06/17 10:13:40;;;;;;;10.73;5.65;;;35.90;36.80;;;;;;5109007;28;20095;-64
2021/06/17 10:16:06;;;;;;;6.38;5.30;;;35.90;35.70;;;;;;5107936;28;20167;-64
2021/06/17 10:18:32;;;;;;;9.70;5.78;;;35.80;35.10;;;;;;5101361;28;20168;-65
2021/06/17 10:20:59;;;;;;;5.90;5.30;;;35.60;35.60;;;;;;5107639;28;20084;-64
2021/06/17 10:23:25;;;;;;;8.38;5.45;;;35.50;34.60;;;;;;5090361;28;20549;-64
2021/06/17 10:25:51;;;;;;;8.02;5.35;;;35.60;35.70;;;;;;5103667;28;20170;-64
2021/06/17 10:28:40;;;;;;;9.18;5.20;;;35.70;37.10;;;;;;5104035;27;20088;-65
2021/06/17 10:31:07;;;;;;;7.82;5.72;;;35.60;33.50;;;;;;5106542;28;20088;-62
2021/06/17 10:33:36;;;;;;;7.10;5.20;;;35.50;34.60;;;;;;5105975;28;20096;-64
2021/06/17 10:36:23;;;;;;;7.00;5.22;;;35.30;35.10;;;;;;5107301;28;20098;-64
2021/06/17 10:39:13;;;;;;;9.00;6.17;;;35.30;36.30;;;;;;5110503;28;20167;-64
2021/06/17 10:41:58;;;;;;;7.13;5.70;;;35.20;34.90;;;;;;5098134;28;20119;-64
2021/06/17 10:44:47;;;;;;;8.13;5.60;;;35.10;35.00;;;;;;5108862;28;20456;-64
2021/06/17 10:47:45;;;;;;;7.65;6.10;;;34.70;36.00;;;;;;5111587;28;20088;-64
2021/06/17 10:50:16;;;;;;;;;;;34.50;36.00;;;;;;5097123;28;20142;-64
2021/06/17 10:52:43;;;;;;;5.80;5.00;;;34.50;36.90;;;;;;5111160;28;20019;-64
2021/06/17 10:55:14;;;;;;;11.77;5.43;;;34.70;37.00;;;;;;5093644;28;20095;-64
2021/06/17 10:57:47;;;;;;;8.48;5.10;;;34.90;37.50;;;;;;5110453;28;20541;-64
2021/06/17 11:02:57;;;;;;;5.90;4.72;;;35.40;35.10;;;;;;5105110;28;20084;-65
2021/06/17 11:05:29;;;;;;;7.82;5.00;;;35.50;34.50;;;;;;5103774;28;20120;-62
2021/06/17 11:08:13;;;;;;;9.88;5.00;;;35.40;33.30;;;;;;5106444;28;20452;-65
2021/06/17 11:11:07;;;;;;;7.90;5.47;;;34.90;32.70;;;;;;5107256;28;20111;-64
2021/06/17 11:14:03;;;;;;;7.47;5.20;;;35.10;34.60;;;;;;5108942;28;20088;-64
2021/06/17 11:16:30;;;;;;;6.10;5.40;;;34.90;34.20;;;;;;5085725;28;20097;-65
2021/06/17 11:19:09;;;;;;;8.75;5.05;;;34.40;34.00;;;;;;5109662;28;20096;-64
2021/06/17 11:21:35;;;;;;;7.95;4.95;;;34.80;34.80;;;;;;5094909;28;20094;-64
2021/06/17 11:24:07;;;;;;;9.25;5.32;;;34.90;35.30;;;;;;5097233;28;20099;-65
2021/06/17 11:26:47;;;;;;;6.40;5.43;;;34.90;35.00;;;;;;5102827;27;20569;-64
2021/06/17 11:29:41;;;;;;;7.82;5.68;;;35.00;35.60;;;;;;5100998;28;20118;-65
2021/06/17 11:32:26;;;;;;;11.73;5.85;;;35.00;33.90;;;;;;5099455;28;20091;-64
2021/06/17 11:34:52;;;;;;;8.77;5.43;;;35.00;34.10;;;;;;5109641;28;20572;-65
2021/06/17 11:37:18;;;;;;;6.13;5.28;;;35.00;33.90;;;;;;5110742;28;20088;-64
2021/06/17 11:39:48;;;;;;;6.93;5.13;;;35.10;34.80;;;;;;5109993;28;20087;-64
2021/06/17 11:42:17;;;;;;;6.78;5.32;;;35.20;34.30;;;;;;5101988;28;20545;-65
2021/06/17 11:44:43;;;;;;;7.38;5.65;;;35.20;35.00;;;;;;5108749;28;20126;-65
2021/06/17 11:47:12;;;;;;;6.60;5.47;;;35.30;34.30;;;;;;5110811;28;20085;-64
2021/06/17 11:49:40;;;;;;;5.93;4.90;;;35.20;33.30;;;;;;5110644;28;20094;-64
2021/06/17 11:52:20;;;;;;;6.65;5.80;;;35.30;34.20;;;;;;5099225;28;20087;-63
2021/06/17 11:54:48;;;;;;;8.30;5.25;;;35.30;35.20;;;;;;5108615;28;20174;-64
2021/06/17 11:57:16;;;;;;;7.20;5.65;;;35.60;34.60;;;;;;5109516;28;20088;-63
2021/06/17 11:59:49;;;;;;;7.93;5.40;;;35.50;33.20;;;;;;5109886;28;20107;-63
2021/06/17 12:02:22;;;;;;;9.70;5.30;;;35.50;34.70;;;;;;5105333;28;20111;-65
2021/06/17 12:04:55;;;;;;;6.85;5.90;;;35.60;35.20;;;;;;5107557;28;20226;-65
2021/06/17 12:07:35;;;;;;;8.55;5.55;;;35.50;33.60;;;;;;5108534;28;20185;-66
2021/06/17 12:10:41;;;;;;;7.80;5.10;;;35.60;34.40;;;;;;5108898;28;20103;-64
2021/06/17 12:13:10;;;;;;;8.75;5.80;;;35.80;34.50;;;;;;5045681;28;20168;-65
2021/06/17 12:15:41;;;;;;;9.25;5.07;;;35.90;33.20;;;;;;5046450;28;20089;-65
2021/06/17 12:18:12;;;;;;;9.38;4.80;;;36.00;33.50;;;;;;5077933;28;20118;-64
2021/06/17 12:20:43;;;;;;;7.57;5.22;;;36.10;33.60;;;;;;5107656;28;20453;-66
2021/06/17 12:23:20;;;;;;;5.78;5.18;;;35.60;31.20;;;;;;5102755;28;20104;-64
2021/06/17 12:26:01;;;;;;;5.35;4.63;;;36.10;32.40;;;;;;5108809;28;20556;-65
2021/06/17 12:28:28;;;;;;;5.15;4.65;;;36.10;33.10;;;;;;5108564;28;20092;-65
2021/06/17 12:30:55;;;;;;;6.40;4.55;;;36.30;33.20;;;;;;5107555;28;20204;-65
2021/06/17 12:33:25;;;;;;;6.40;4.45;;;36.40;31.20;;;;;;5110529;28;20092;-65
2021/06/17 12:35:57;;;;;;;8.27;4.90;;;36.50;31.70;;;;;;5109049;28;20142;-65
2021/06/17 12:38:29;;;;;;;7.97;4.88;;;36.70;31.40;;;;;;5105297;28;20092;-64
2021/06/17 12:41:08;;;;;;;6.80;4.70;;;36.70;30.20;;;;;;5104966;28;20088;-65
2021/06/17 12:43:46;;;;;;;6.47;4.75;;;36.70;30.50;;;;;;5105376;28;20565;-65
2021/06/17 12:46:12;;;;;;;6.43;4.55;;;36.90;30.00;;;;;;5098510;28;20557;-64
2021/06/17 12:54:34;;;;;;;6.40;5.18;;;36.50;31.60;;;;;;5100034;28;20084;-64
2021/06/17 12:57:02;;;;;;;8.00;4.78;;;36.40;31.50;;;;;;5101249;28;20981;-64
2021/06/17 12:59:53;;;;;;;7.10;4.95;;;36.60;31.70;;;;;;5103265;28;20175;-64
2021/06/17 13:02:21;;;;;;;5.80;4.60;;;36.70;31.20;;;;;;5105101;28;20141;-64
2021/06/17 13:05:02;;;;;;;7.65;5.13;;;36.80;30.10;;;;;;5108980;28;20484;-65